sensor_id;sensor_type;location;lat;lon;timestamp;pressure;altitude;pressure_sealevel;temperature;humidity
34893;BME280;21106;52.240;20.902;2022-08-04T00:04:25;100396.41;;;22.82;52.94
34893;BME280;21106;52.240;20.902;2022-08-04T00:09:38;100394.58;;;22.75;52.99
34893;BME280;21106;52.240;20.902;2022-08-04T00:14:47;100396.09;;;22.71;53.09
34893;BME280;21106;52.240;20.902;2022-08-04T00:19:55;100398.36;;;22.65;53.15
34893;BME280;21106;52.240;20.902;2022-08-04T00:25:04;100398.70;;;22.60;53.35
34893;BME280;21106;52.240;20.902;2022-08-04T00:30:10;100396.84;;;22.54;53.52
34893;BME280;21106;52.240;20.902;2022-08-04T00:35:16;100405.50;;;22.51;53.60
34893;BME280;21106;52.240;20.902;2022-08-04T00:45:58;100404.00;;;22.39;53.94
34893;BME280;21106;52.240;20.902;2022-08-04T00:51:19;100399.14;;;22.32;54.03
34893;BME280;21106;52.240;20.902;2022-08-04T00:56:40;100399.19;;;22.26;54.19
34893;BME280;21106;52.240;20.902;2022-08-04T01:07:33;100407.37;;;22.17;54.43
34893;BME280;21106;52.240;20.902;2022-08-04T01:12:45;100408.55;;;22.12;54.50
34893;BME280;21106;52.240;20.902;2022-08-04T01:28:57;100420.17;;;22.00;54.67
34893;BME280;21106;52.240;20.902;2022-08-04T01:34:02;100422.73;;;21.95;54.66
34893;BME280;21106;52.240;20.902;2022-08-04T01:39:09;100420.98;;;21.92;54.62
34893;BME280;21106;52.240;20.902;2022-08-04T01:44:35;100424.98;;;21.89;54.64
34893;BME280;21106;52.240;20.902;2022-08-04T01:49:43;100423.00;;;21.87;54.53
34893;BME280;21106;52.240;20.902;2022-08-04T01:54:51;100415.84;;;21.86;54.52
34893;BME280;21106;52.240;20.902;2022-08-04T01:59:58;100422.58;;;21.84;54.49
34893;BME280;21106;52.240;20.902;2022-08-04T02:05:04;100421.77;;;21.83;54.50
34893;BME280;21106;52.240;20.902;2022-08-04T02:15:40;100411.07;;;21.75;54.44
34893;BME280;21106;52.240;20.902;2022-08-04T02:20:45;100417.47;;;21.72;54.46
34893;BME280;21106;52.240;20.902;2022-08-04T02:25:55;100404.27;;;21.69;54.41
34893;BME280;21106;52.240;20.902;2022-08-04T02:36:24;100394.75;;;21.62;54.38
34893;BME280;21106;52.240;20.902;2022-08-04T02:41:31;100396.11;;;21.62;54.28
34893;BME280;21106;52.240;20.902;2022-08-04T02:46:38;100391.62;;;21.59;54.21
34893;BME280;21106;52.240;20.902;2022-08-04T02:51:51;100394.55;;;21.57;54.22
34893;BME280;21106;52.240;20.902;2022-08-04T02:57:00;100390.39;;;21.55;54.24
34893;BME280;21106;52.240;20.902;2022-08-04T03:02:06;100391.14;;;21.53;54.24
34893;BME280;21106;52.240;20.902;2022-08-04T03:07:28;100392.69;;;21.51;54.23
34893;BME280;21106;52.240;20.902;2022-08-04T03:23:46;100402.50;;;21.43;54.28
34893;BME280;21106;52.240;20.902;2022-08-04T03:29:01;100408.70;;;21.41;54.36
34893;BME280;21106;52.240;20.902;2022-08-04T04:08:05;100425.64;;;21.34;54.59
34893;BME280;21106;52.240;20.902;2022-08-04T04:12:48;100430.78;;;21.33;54.49
34893;BME280;21106;52.240;20.902;2022-08-04T04:23:10;100433.59;;;21.42;54.38
34893;BME280;21106;52.240;20.902;2022-08-04T04:28:31;100426.91;;;21.54;54.37
34893;BME280;21106;52.240;20.902;2022-08-04T04:39:05;100433.05;;;21.71;54.07
34893;BME280;21106;52.240;20.902;2022-08-04T04:44:22;100439.42;;;21.96;53.85
34893;BME280;21106;52.240;20.902;2022-08-04T04:55:17;100438.91;;;22.59;53.13
34893;BME280;21106;52.240;20.902;2022-08-04T05:00:44;100445.29;;;22.96;52.70
34893;BME280;21106;52.240;20.902;2022-08-04T05:06:07;100450.48;;;23.31;52.44
34893;BME280;21106;52.240;20.902;2022-08-04T05:11:38;100457.48;;;23.54;51.70
34893;BME280;21106;52.240;20.902;2022-08-04T05:16:43;100460.84;;;23.75;51.40
34893;BME280;21106;52.240;20.902;2022-08-04T05:22:09;100460.80;;;23.84;51.05
34893;BME280;21106;52.240;20.902;2022-08-04T05:27:21;100458.18;;;23.98;50.79
34893;BME280;21106;52.240;20.902;2022-08-04T05:32:35;100455.13;;;24.15;50.18
34893;BME280;21106;52.240;20.902;2022-08-04T05:37:43;100458.28;;;24.30;50.08
34893;BME280;21106;52.240;20.902;2022-08-04T05:42:50;100462.85;;;24.27;49.64
34893;BME280;21106;52.240;20.902;2022-08-04T05:47:56;100470.47;;;24.25;49.66
34893;BME280;21106;52.240;20.902;2022-08-04T05:53:08;100464.22;;;24.27;49.44
34893;BME280;21106;52.240;20.902;2022-08-04T05:58:16;100471.24;;;24.44;49.24
34893;BME280;21106;52.240;20.902;2022-08-04T06:03:24;100476.71;;;24.64;49.08
34893;BME280;21106;52.240;20.902;2022-08-04T06:08:33;100474.66;;;24.92;48.94
34893;BME280;21106;52.240;20.902;2022-08-04T06:13:47;100479.39;;;25.17;48.57
34893;BME280;21106;52.240;20.902;2022-08-04T06:18:53;100475.72;;;25.37;48.46
34893;BME280;21106;52.240;20.902;2022-08-04T06:24:07;100482.13;;;25.52;48.11
34893;BME280;21106;52.240;20.902;2022-08-04T06:29:17;100483.58;;;25.68;47.95
34893;BME280;21106;52.240;20.902;2022-08-04T06:39:53;100489.94;;;25.97;47.38
34893;BME280;21106;52.240;20.902;2022-08-04T06:45:07;100490.81;;;26.12;47.29
34893;BME280;21106;52.240;20.902;2022-08-04T07:01:52;100483.52;;;26.64;45.83
34893;BME280;21106;52.240;20.902;2022-08-04T07:12:51;100479.80;;;26.87;45.21
34893;BME280;21106;52.240;20.902;2022-08-04T07:23:30;100480.30;;;27.20;44.83
34893;BME280;21106;52.240;20.902;2022-08-04T07:29:01;100483.55;;;27.33;44.45
34893;BME280;21106;52.240;20.902;2022-08-04T07:40:04;100482.30;;;27.60;43.40
34893;BME280;21106;52.240;20.902;2022-08-04T07:45:25;100487.97;;;27.73;43.19
34893;BME280;21106;52.240;20.902;2022-08-04T07:50:43;100487.03;;;27.86;43.09
34893;BME280;21106;52.240;20.902;2022-08-04T07:56:00;100487.41;;;27.95;41.99
34893;BME280;21106;52.240;20.902;2022-08-04T08:01:10;100488.86;;;27.97;41.61
34893;BME280;21106;52.240;20.902;2022-08-04T08:06:21;100488.09;;;28.04;41.27
34893;BME280;21106;52.240;20.902;2022-08-04T08:11:35;100483.50;;;28.12;41.09
34893;BME280;21106;52.240;20.902;2022-08-04T08:16:58;100482.80;;;28.24;41.17
34893;BME280;21106;52.240;20.902;2022-08-04T08:22:32;100481.31;;;28.39;40.98
34893;BME280;21106;52.240;20.902;2022-08-04T09:24:10;100486.35;;;28.47;38.24
34893;BME280;21106;52.240;20.902;2022-08-04T09:46:24;100482.93;;;28.64;38.05
34893;BME280;21106;52.240;20.902;2022-08-04T09:51:31;100482.13;;;28.63;38.17
34893;BME280;21106;52.240;20.902;2022-08-04T10:01:56;100478.19;;;28.59;38.41
34893;BME280;21106;52.240;20.902;2022-08-04T10:13:04;100476.60;;;28.66;38.18
34893;BME280;21106;52.240;20.902;2022-08-04T10:18:35;100475.38;;;28.54;37.71
34893;BME280;21106;52.240;20.902;2022-08-04T10:23:47;100476.36;;;28.43;37.85
34893;BME280;21106;52.240;20.902;2022-08-04T10:29:46;100471.65;;;28.39;37.85
34893;BME280;21106;52.240;20.902;2022-08-04T10:34:21;100465.80;;;28.35;38.08
34893;BME280;21106;52.240;20.902;2022-08-04T10:39:53;100467.14;;;28.32;38.42
34893;BME280;21106;52.240;20.902;2022-08-04T10:50:03;100447.89;;;28.38;38.39
34893;BME280;21106;52.240;20.902;2022-08-04T11:00:26;100443.86;;;28.21;37.93
34893;BME280;21106;52.240;20.902;2022-08-04T12:46:21;100383.98;;;28.51;37.78
34893;BME280;21106;52.240;20.902;2022-08-04T13:25:03;100356.72;;;28.96;36.84
34893;BME280;21106;52.240;20.902;2022-08-04T13:30:25;100357.22;;;28.88;36.49
34893;BME280;21106;52.240;20.902;2022-08-04T13:35:55;100348.64;;;28.87;36.58
34893;BME280;21106;52.240;20.902;2022-08-04T13:41:15;100347.83;;;28.89;35.90
34893;BME280;21106;52.240;20.902;2022-08-04T14:15:32;100319.67;;;28.94;35.45
34893;BME280;21106;52.240;20.902;2022-08-04T14:38:16;100309.24;;;29.04;35.09
34893;BME280;21106;52.240;20.902;2022-08-04T14:43:41;100297.89;;;29.03;35.02
34893;BME280;21106;52.240;20.902;2022-08-04T14:49:12;100295.95;;;29.01;35.13
34893;BME280;21106;52.240;20.902;2022-08-04T14:54:25;100301.72;;;28.94;34.95
34893;BME280;21106;52.240;20.902;2022-08-04T14:59:47;100302.54;;;28.92;34.83
34893;BME280;21106;52.240;20.902;2022-08-04T15:04:59;100298.39;;;28.92;34.73
34893;BME280;21106;52.240;20.902;2022-08-04T15:10:05;100295.39;;;28.94;34.70
34893;BME280;21106;52.240;20.902;2022-08-04T15:15:14;100287.34;;;28.92;34.76
34893;BME280;21106;52.240;20.902;2022-08-04T15:20:24;100291.25;;;28.99;34.37
34893;BME280;21106;52.240;20.902;2022-08-04T15:25:36;100287.38;;;28.97;34.54
34893;BME280;21106;52.240;20.902;2022-08-04T15:30:44;100290.42;;;28.96;34.36
34893;BME280;21106;52.240;20.902;2022-08-04T15:36:15;100282.69;;;29.00;34.45
34893;BME280;21106;52.240;20.902;2022-08-04T15:47:07;100284.36;;;29.01;33.90
34893;BME280;21106;52.240;20.902;2022-08-04T15:52:00;100276.06;;;28.99;34.05
34893;BME280;21106;52.240;20.902;2022-08-04T15:57:09;100275.27;;;29.06;33.92
34893;BME280;21106;52.240;20.902;2022-08-04T16:02:38;100279.94;;;28.98;33.90
34893;BME280;21106;52.240;20.902;2022-08-04T16:13:11;100274.16;;;29.02;34.06
34893;BME280;21106;52.240;20.902;2022-08-04T16:18:43;100274.19;;;29.12;33.97
34893;BME280;21106;52.240;20.902;2022-08-04T16:23:45;100282.73;;;29.08;33.97
34893;BME280;21106;52.240;20.902;2022-08-04T16:28:46;100274.98;;;29.05;33.85
34893;BME280;21106;52.240;20.902;2022-08-04T16:33:57;100275.78;;;29.00;33.80
34893;BME280;21106;52.240;20.902;2022-08-04T16:39:03;100268.30;;;28.91;33.79
34893;BME280;21106;52.240;20.902;2022-08-04T16:49:40;100263.83;;;28.82;33.92
34893;BME280;21106;52.240;20.902;2022-08-04T16:54:47;100260.79;;;28.79;33.90
34893;BME280;21106;52.240;20.902;2022-08-04T16:59:53;100260.77;;;28.76;34.01
34893;BME280;21106;52.240;20.902;2022-08-04T17:04:59;100261.33;;;28.73;33.94
34893;BME280;21106;52.240;20.902;2022-08-04T17:10:07;100254.41;;;28.71;34.06
34893;BME280;21106;52.240;20.902;2022-08-04T17:15:21;100262.92;;;28.64;34.09
34893;BME280;21106;52.240;20.902;2022-08-04T17:20:27;100259.88;;;28.61;34.23
34893;BME280;21106;52.240;20.902;2022-08-04T17:25:34;100265.35;;;28.56;34.18
34893;BME280;21106;52.240;20.902;2022-08-04T17:30:41;100261.97;;;28.51;34.28
34893;BME280;21106;52.240;20.902;2022-08-04T17:35:47;100265.83;;;28.48;34.31
34893;BME280;21106;52.240;20.902;2022-08-04T17:40:59;100263.30;;;28.39;34.26
34893;BME280;21106;52.240;20.902;2022-08-04T17:46:21;100258.83;;;28.30;34.34
34893;BME280;21106;52.240;20.902;2022-08-04T18:07:42;100275.45;;;28.03;34.88
34893;BME280;21106;52.240;20.902;2022-08-04T18:12:51;100274.53;;;27.95;35.06
34893;BME280;21106;52.240;20.902;2022-08-04T18:18:24;100284.09;;;27.88;35.14
34893;BME280;21106;52.240;20.902;2022-08-04T18:45:17;100289.93;;;27.35;35.44
34893;BME280;21106;52.240;20.902;2022-08-04T19:01:10;100304.35;;;27.02;35.63
34893;BME280;21106;52.240;20.902;2022-08-04T19:06:21;100298.72;;;26.92;35.73
34893;BME280;21106;52.240;20.902;2022-08-04T19:16:57;100309.33;;;26.81;35.90
34893;BME280;21106;52.240;20.902;2022-08-04T19:38:13;100304.22;;;26.53;36.36
34893;BME280;21106;52.240;20.902;2022-08-04T20:00:11;100306.58;;;26.28;36.81
34893;BME280;21106;52.240;20.902;2022-08-04T20:05:19;100305.63;;;26.20;36.93
34893;BME280;21106;52.240;20.902;2022-08-04T20:10:25;100305.52;;;26.13;37.11
34893;BME280;21106;52.240;20.902;2022-08-04T21:08:52;100320.02;;;25.38;38.89
34893;BME280;21106;52.240;20.902;2022-08-04T21:19:32;100318.45;;;25.28;39.56
34893;BME280;21106;52.240;20.902;2022-08-04T21:30:20;100316.13;;;25.08;40.59
34893;BME280;21106;52.240;20.902;2022-08-04T21:52:29;100322.91;;;24.80;41.84
34893;BME280;21106;52.240;20.902;2022-08-04T22:31:47;100313.19;;;24.28;43.76
34893;BME280;21106;52.240;20.902;2022-08-04T22:37:07;100309.50;;;24.23;43.96
34893;BME280;21106;52.240;20.902;2022-08-04T22:42:13;100298.95;;;24.17;44.32
34893;BME280;21106;52.240;20.902;2022-08-04T22:47:19;100297.38;;;24.10;44.54
34893;BME280;21106;52.240;20.902;2022-08-04T22:52:25;100300.44;;;24.02;44.83
34893;BME280;21106;52.240;20.902;2022-08-04T22:57:31;100299.80;;;23.97;44.89
34893;BME280;21106;52.240;20.902;2022-08-04T23:02:37;100298.53;;;23.91;45.24
34893;BME280;21106;52.240;20.902;2022-08-04T23:07:42;100297.02;;;23.86;45.41
34893;BME280;21106;52.240;20.902;2022-08-04T23:12:48;100301.23;;;23.79;45.58
34893;BME280;21106;52.240;20.902;2022-08-04T23:17:54;100279.38;;;23.70;45.75
34893;BME280;21106;52.240;20.902;2022-08-04T23:23:00;100286.60;;;23.65;46.15
34893;BME280;21106;52.240;20.902;2022-08-04T23:28:05;100276.30;;;23.57;46.34
34893;BME280;21106;52.240;20.902;2022-08-04T23:33:11;100274.78;;;23.52;46.55
34893;BME280;21106;52.240;20.902;2022-08-04T23:38:17;100268.88;;;23.46;46.62
34893;BME280;21106;52.240;20.902;2022-08-04T23:43:23;100272.86;;;23.41;46.90
34893;BME280;21106;52.240;20.902;2022-08-04T23:48:29;100270.66;;;23.32;47.23
34893;BME280;21106;52.240;20.902;2022-08-04T23:53:35;100263.67;;;23.27;47.37
34893;BME280;21106;52.240;20.902;2022-08-04T23:58:42;100263.06;;;23.25;47.58
